Time;durP1;ratioP1;P1;durP2;ratioP2;P2;SDS_P1;SDS_P2;PMS_P1;PMS_P2;Temp;Humidity;BMP_temperature;BMP_pressure;BME280_temperature;BME280_humidity;BME280_pressure;Samples;Min_cycle;Max_cycle;Signal;HPM_P1;HPM_P2
2023/08/19 00:02:33;;;;;;;11.30;10.10;;;;;;;22.91;74.20;99202.38;223574;177;139650;-63
2023/08/19 00:07:36;;;;;;;12.80;9.40;;;;;;;22.88;74.37;99203.19;223534;182;137939;-64
2023/08/19 00:12:40;;;;;;;11.50;8.90;;;;;;;22.87;74.48;99201.26;223466;181;148816;-63
2023/08/19 00:17:43;;;;;;;12.90;8.80;;;;;;;22.87;74.66;99190.94;223542;181;139438;-65
2023/08/19 00:22:46;;;;;;;12.40;9.90;;;;;;;22.89;74.82;99184.98;223544;181;139668;-63
2023/08/19 00:27:49;;;;;;;12.10;9.80;;;;;;;22.88;75.02;99177.30;223534;178;147385;-63
2023/08/19 00:32:52;;;;;;;12.50;9.60;;;;;;;22.87;74.88;99180.09;223558;182;139372;-65
2023/08/19 00:37:56;;;;;;;14.80;9.50;;;;;;;22.86;74.96;99174.52;223414;181;137202;-66
2023/08/19 00:42:59;;;;;;;14.00;8.80;;;;;;;22.86;74.81;99177.41;223407;181;147349;-65
2023/08/19 00:48:04;;;;;;;21.20;10.30;;;;;;;22.88;74.53;99179.27;223374;182;141901;-64
2023/08/19 00:53:08;;;;;;;13.20;9.80;;;;;;;22.86;74.34;99179.76;223466;181;138226;-66
2023/08/19 00:58:12;;;;;;;12.00;9.00;;;;;;;22.82;74.41;99179.41;223413;181;147353;-64
2023/08/19 01:03:15;;;;;;;12.90;9.40;;;;;;;22.78;74.28;99171.24;223439;181;138976;-64
2023/08/19 01:08:26;;;;;;;11.00;8.70;;;;;;;22.72;74.35;99165.04;223489;181;137761;-62
2023/08/19 01:13:44;;;;;;;14.00;9.50;;;;;;;22.67;74.38;99161.72;223526;181;149519;-62
2023/08/19 01:18:48;;;;;;;9.60;8.60;;;;;;;22.66;74.56;99159.91;223371;182;138714;-63
2023/08/19 01:23:58;;;;;;;13.10;9.40;;;;;;;22.70;74.49;99158.69;223497;182;138306;-63
2023/08/19 01:29:01;;;;;;;13.20;9.40;;;;;;;22.67;74.40;99164.28;223453;182;147699;-65
2023/08/19 01:34:04;;;;;;;11.10;9.50;;;;;;;22.64;74.65;99165.70;223406;181;138864;-61
2023/08/19 01:39:09;;;;;;;11.20;8.80;;;;;;;22.63;74.67;99167.06;223403;181;141094;-65
2023/08/19 01:44:13;;;;;;;12.70;8.60;;;;;;;22.61;74.74;99170.73;223531;181;148818;-61
2023/08/19 01:49:16;;;;;;;14.50;9.10;;;;;;;22.63;74.82;99171.27;223456;182;139716;-66
2023/08/19 01:54:24;;;;;;;14.70;9.00;;;;;;;22.64;75.05;99171.55;223471;181;138515;-61
2023/08/19 01:59:34;;;;;;;12.20;9.50;;;;;;;22.64;75.12;99172.27;223487;181;147721;-65
2023/08/19 02:04:54;;;;;;;12.90;9.40;;;;;;;22.62;74.81;99172.55;222375;212;139024;-62
2023/08/19 02:09:59;;;;;;;13.30;9.20;;;;;;;22.61;75.09;99172.98;223341;181;138215;-66
2023/08/19 02:15:04;;;;;;;13.50;9.50;;;;;;;22.69;75.04;99172.42;223381;181;149678;-61
2023/08/19 02:20:08;;;;;;;14.50;10.20;;;;;;;22.68;74.89;99175.01;223399;181;140855;-61
2023/08/19 02:25:11;;;;;;;14.10;10.30;;;;;;;22.68;75.10;99174.33;223189;183;137886;-59
2023/08/19 02:30:15;;;;;;;13.50;10.20;;;;;;;22.65;75.06;99177.85;223396;182;148509;-62
2023/08/19 02:35:19;;;;;;;13.50;10.30;;;;;;;22.61;74.98;99180.47;223419;182;139133;-60
2023/08/19 02:40:24;;;;;;;13.00;10.50;;;;;;;22.59;75.00;99177.86;223471;181;139613;-60
2023/08/19 02:45:27;;;;;;;12.80;9.80;;;;;;;22.57;75.18;99168.03;223489;181;148127;-63
2023/08/19 02:50:31;;;;;;;13.90;10.50;;;;;;;22.59;75.38;99172.08;223542;182;138525;-59
2023/08/19 02:55:39;;;;;;;18.10;11.50;;;;;;;22.63;75.15;99180.96;223442;181;138476;-63
2023/08/19 03:00:46;;;;;;;14.00;11.40;;;;;;;22.66;74.97;99180.36;223347;181;148223;-64
2023/08/19 03:05:50;;;;;;;22.60;11.80;;;;;;;22.60;74.99;99190.92;223421;182;139617;-61
2023/08/19 03:10:53;;;;;;;18.20;11.00;;;;;;;22.55;75.29;99200.11;223474;181;139446;-64
2023/08/19 05:25:30;;;;;;;28.90;24.00;;;;;;;22.88;76.32;99239.89;221843;193;666410;-63
2023/08/19 05:30:33;;;;;;;17.30;13.30;;;;;;;22.95;76.04;99244.14;222800;187;137530;-61
2023/08/19 05:35:37;;;;;;;17.50;13.70;;;;;;;22.99;76.13;99241.90;222928;187;143897;-61
2023/08/19 05:40:40;;;;;;;15.70;13.90;;;;;;;23.04;75.85;99235.83;223188;183;139014;-61
2023/08/19 05:45:43;;;;;;;23.30;14.80;;;;;;;23.09;75.87;99236.56;223304;184;136698;-64
2023/08/19 05:50:46;;;;;;;20.10;15.20;;;;;;;23.13;75.87;99242.48;223188;184;144447;-65
2023/08/19 05:55:49;;;;;;;17.90;14.40;;;;;;;23.15;75.61;99242.64;223212;184;140551;-62
2023/08/19 06:01:08;;;;;;;57.00;45.10;;;;;;;23.17;75.94;99242.00;223273;185;136372;-59
2023/08/19 06:06:14;;;;;;;23.50;21.00;;;;;;;23.26;75.94;99241.38;223285;184;145742;-60
2023/08/19 06:11:17;;;;;;;16.90;14.20;;;;;;;23.42;75.85;99246.40;223287;184;139590;-57
2023/08/19 06:16:20;;;;;;;19.60;14.70;;;;;;;23.58;75.33;99253.27;223205;184;138155;-60
2023/08/19 06:21:24;;;;;;;14.70;12.70;;;;;;;23.70;74.85;99255.96;223211;185;146473;-59
2023/08/19 06:26:27;;;;;;;28.70;24.80;;;;;;;23.77;74.35;99256.79;223232;184;141711;-59
2023/08/19 06:31:31;;;;;;;23.70;15.90;;;;;;;23.83;73.85;99258.98;223065;184;137997;-59
2023/08/19 06:36:40;;;;;;;19.00;11.40;;;;;;;23.83;73.62;99256.47;223252;184;147239;-59
2023/08/19 06:41:50;;;;;;;16.00;12.00;;;;;;;23.82;73.19;99255.48;223208;184;139521;-57
2023/08/19 06:47:02;;;;;;;21.70;12.70;;;;;;;23.84;73.28;99256.40;223123;184;137423;-57
2023/08/19 06:52:06;;;;;;;25.60;21.00;;;;;;;23.94;73.39;99255.30;223087;184;147836;-58
2023/08/19 06:57:29;;;;;;;247.30;170.20;;;;;;;23.93;72.62;99260.23;222898;184;139664;-57
2023/08/19 07:02:35;;;;;;;46.60;37.50;;;;;;;23.95;73.10;99262.22;223215;184;137358;-58
2023/08/19 07:07:46;;;;;;;33.70;25.30;;;;;;;24.13;73.01;99259.37;223124;185;145842;-59
2023/08/19 07:12:50;;;;;;;31.20;26.20;;;;;;;24.34;72.79;99262.27;223447;182;140195;-58
2023/08/19 07:17:58;;;;;;;24.00;18.40;;;;;;;24.52;72.26;99266.17;223331;181;137420;-58
2023/08/19 07:23:03;;;;;;;235.70;189.10;;;;;;;24.69;71.95;99269.43;223380;183;147773;-60
2023/08/19 07:28:08;;;;;;;51.30;39.70;;;;;;;24.82;71.83;99271.77;223391;181;140962;-58
2023/08/19 07:33:11;;;;;;;68.70;44.00;;;;;;;24.91;71.21;99274.25;223436;182;137394;-58
2023/08/19 07:38:14;;;;;;;18.50;13.30;;;;;;;25.01;71.09;99267.42;223311;182;145838;-58
2023/08/19 07:43:18;;;;;;;63.50;48.50;;;;;;;25.11;70.10;99266.16;223354;182;138613;-59
2023/08/19 07:48:21;;;;;;;24.20;17.00;;;;;;;25.12;69.47;99272.90;223444;182;138108;-59
2023/08/19 07:53:25;;;;;;;13.80;11.30;;;;;;;25.20;69.68;99265.61;223418;181;145631;-60
2023/08/19 07:58:28;;;;;;;13.40;9.90;;;;;;;25.30;69.10;99272.04;223541;181;139162;-60
2023/08/19 08:03:32;;;;;;;12.50;8.80;;;;;;;25.37;68.64;99274.25;223552;181;137118;-60
2023/08/19 08:08:36;;;;;;;12.90;9.80;;;;;;;25.46;68.14;99278.23;223470;182;146468;-57
2023/08/19 08:13:46;;;;;;;14.30;9.40;;;;;;;25.52;67.11;99278.64;223466;182;139181;-60
2023/08/19 08:18:49;;;;;;;11.90;9.80;;;;;;;25.63;66.79;99284.15;223540;181;137696;-60
2023/08/19 08:23:54;;;;;;;10.70;8.60;;;;;;;25.75;66.01;99293.66;223484;181;145752;-59
2023/08/19 08:28:57;;;;;;;13.20;8.10;;;;;;;25.83;65.73;99298.39;223158;182;140462;-58
2023/08/19 08:34:01;;;;;;;11.80;8.80;;;;;;;25.93;65.62;99297.45;223469;182;137979;-59
2023/08/19 08:39:05;;;;;;;11.20;7.60;;;;;;;26.02;65.06;99291.09;223433;181;145794;-59
2023/08/19 08:44:08;;;;;;;10.60;9.50;;;;;;;26.12;64.66;99293.31;223368;182;138994;-60
2023/08/19 08:49:12;;;;;;;10.40;9.30;;;;;;;26.23;64.20;99290.34;223502;181;137600;-58
2023/08/19 08:54:17;;;;;;;14.30;9.60;;;;;;;26.34;64.17;99291.54;223337;181;145788;-59
2023/08/19 08:59:20;;;;;;;8.70;7.40;;;;;;;26.39;63.92;99295.21;223382;182;139812;-59
2023/08/19 09:04:28;;;;;;;12.50;8.00;;;;;;;26.43;63.51;99288.77;223432;182;137543;-61
2023/08/19 09:09:33;;;;;;;10.90;8.30;;;;;;;26.55;63.25;99286.02;223450;182;145772;-59
2023/08/19 09:14:37;;;;;;;10.10;8.30;;;;;;;26.64;62.88;99281.98;223269;182;139158;-59
2023/08/19 09:19:40;;;;;;;8.70;7.20;;;;;;;26.67;62.32;99277.27;223406;182;137723;-58
2023/08/19 09:24:44;;;;;;;8.90;7.00;;;;;;;26.73;62.08;99276.99;223411;182;146522;-59
2023/08/19 09:29:52;;;;;;;15.30;12.00;;;;;;;26.90;60.89;99281.29;223442;182;138596;-58
2023/08/19 09:35:12;;;;;;;9.80;6.90;;;;;;;27.11;60.24;99273.19;223481;182;136636;-60
2023/08/19 09:40:20;;;;;;;9.30;6.30;;;;;;;27.33;60.01;99277.77;223436;182;145657;-57
2023/08/19 09:45:30;;;;;;;7.90;6.00;;;;;;;27.53;59.74;99278.23;223537;182;139113;-63
2023/08/19 09:50:33;;;;;;;11.50;4.80;;;;;;;27.77;58.85;99278.30;223598;182;140835;-62
2023/08/19 09:55:38;;;;;;;7.40;5.50;;;;;;;27.92;55.48;99277.98;223492;181;146359;-64
2023/08/19 10:00:42;;;;;;;9.20;5.60;;;;;;;28.09;56.05;99280.14;223572;182;139397;-63
2023/08/19 10:05:52;;;;;;;6.40;5.60;;;;;;;28.28;54.90;99281.45;223582;182;136861;-60
2023/08/19 10:11:06;;;;;;;11.90;6.10;;;;;;;28.48;54.64;99277.85;223432;181;147427;-62
2023/08/19 10:16:24;;;;;;;7.10;5.70;;;;;;;28.85;55.27;99276.16;223519;181;138761;-63
2023/08/19 10:21:30;;;;;;;7.20;6.20;;;;;;;29.22;54.50;99271.60;223529;182;138388;-58
2023/08/19 10:26:33;;;;;;;8.70;6.20;;;;;;;29.47;53.76;99263.92;223553;182;147028;-59
2023/08/19 10:31:38;;;;;;;6.30;5.50;;;;;;;29.57;53.30;99262.20;223451;181;139370;-61
2023/08/19 10:36:41;;;;;;;10.80;5.90;;;;;;;29.72;51.55;99261.65;223537;182;138080;-59
2023/08/19 10:41:44;;;;;;;8.30;5.60;;;;;;;29.78;49.72;99257.41;223540;181;145865;-59
2023/08/19 10:46:47;;;;;;;7.60;5.30;;;;;;;29.90;49.02;99261.23;223472;181;138994;-58
2023/08/19 10:52:03;;;;;;;5.60;5.10;;;;;;;30.04;48.89;99258.19;223450;181;137350;-59
2023/08/19 10:57:14;;;;;;;7.50;5.40;;;;;;;30.18;47.85;99253.16;223494;182;146192;-60
2023/08/19 11:02:18;;;;;;;5.60;5.10;;;;;;;30.30;47.68;99251.23;223476;181;140751;-59
2023/08/19 11:07:21;;;;;;;7.80;5.40;;;;;;;30.42;48.21;99247.13;223593;182;136763;-60
2023/08/19 11:12:29;;;;;;;5.80;5.10;;;;;;;30.43;47.05;99243.02;223478;181;145777;-60
2023/08/19 11:17:37;;;;;;;6.60;5.00;;;;;;;30.53;46.41;99238.70;223434;181;138790;-58
2023/08/19 11:22:48;;;;;;;9.60;5.20;;;;;;;30.54;47.13;99238.44;223451;182;139264;-58
2023/08/19 11:27:51;;;;;;;11.10;6.60;;;;;;;30.71;47.76;99232.34;223419;181;146538;-62
2023/08/19 11:32:56;;;;;;;7.40;6.20;;;;;;;30.83;47.48;99228.23;223547;182;138867;-59
2023/08/19 11:37:59;;;;;;;9.20;5.60;;;;;;;30.97;47.05;99223.02;223466;182;137293;-61
2023/08/19 11:43:11;;;;;;;6.90;6.20;;;;;;;30.79;46.85;99218.17;223548;182;146962;-60
2023/08/19 11:48:15;;;;;;;8.30;4.90;;;;;;;30.71;46.66;99217.34;223525;182;138563;-60
2023/08/19 11:53:28;;;;;;;8.20;4.80;;;;;;;30.90;45.90;99218.66;223517;182;137136;-60
2023/08/19 11:58:48;;;;;;;9.90;5.20;;;;;;;31.19;44.82;99218.78;223570;182;145967;-63
2023/08/19 12:03:52;;;;;;;8.10;5.40;;;;;;;31.42;44.70;99215.52;223590;182;139516;-59
2023/08/19 12:08:55;;;;;;;7.20;5.60;;;;;;;31.62;44.02;99210.71;223437;182;136541;-61
2023/08/19 12:13:59;;;;;;;7.00;5.00;;;;;;;31.86;43.50;99206.57;223524;182;146041;-58
2023/08/19 12:19:03;;;;;;;4.90;4.50;;;;;;;32.00;42.31;99208.54;223417;181;140894;-60
2023/08/19 12:24:07;;;;;;;10.00;5.40;;;;;;;32.17;42.37;99204.56;223417;182;139717;-60
2023/08/19 12:29:10;;;;;;;7.70;5.20;;;;;;;32.35;42.91;99206.52;223481;182;145992;-60
2023/08/19 12:34:15;;;;;;;6.40;5.10;;;;;;;32.36;42.56;99205.88;222832;182;139013;-61
2023/08/19 12:39:18;;;;;;;7.60;4.90;;;;;;;32.52;42.79;99203.21;223585;181;137111;-61
2023/08/19 12:44:22;;;;;;;8.20;4.80;;;;;;;32.53;42.39;99200.92;223473;182;146482;-60
2023/08/19 12:49:25;;;;;;;7.60;4.80;;;;;;;32.66;42.12;99200.44;223399;182;139491;-57
2023/08/19 12:54:28;;;;;;;7.70;4.60;;;;;;;32.85;41.62;99193.27;223441;182;137030;-60
2023/08/19 12:59:32;;;;;;;6.50;4.30;;;;;;;33.01;41.10;99195.98;223406;182;146291;-59
2023/08/19 13:04:35;;;;;;;6.80;4.50;;;;;;;33.17;40.44;99199.31;223364;181;139722;-61
2023/08/19 13:09:39;;;;;;;5.30;4.70;;;;;;;33.39;39.79;99195.02;223381;181;138332;-60
2023/08/19 13:14:42;;;;;;;8.60;4.30;;;;;;;33.56;39.31;99199.27;223497;181;146244;-58
2023/08/19 13:19:45;;;;;;;5.40;4.80;;;;;;;33.67;38.29;99195.16;223338;182;139820;-60
2023/08/19 13:24:51;;;;;;;5.10;4.40;;;;;;;33.57;37.47;99198.02;223357;182;136901;-61
2023/08/19 13:29:55;;;;;;;4.50;3.90;;;;;;;33.23;37.00;99196.92;223343;182;145607;-61
2023/08/19 13:34:59;;;;;;;9.90;4.90;;;;;;;32.84;37.24;99197.23;223287;182;139047;-59
2023/08/19 13:40:05;;;;;;;5.70;4.50;;;;;;;32.91;37.99;99204.68;223501;182;159267;-60
2023/08/19 13:45:09;;;;;;;5.60;5.00;;;;;;;32.73;38.22;99213.30;223496;182;145732;-58
2023/08/19 13:50:12;;;;;;;8.50;6.60;;;;;;;32.37;39.02;99218.20;223418;182;138719;-58
2023/08/19 13:55:16;;;;;;;7.00;5.10;;;;;;;32.02;40.26;99224.39;223462;183;139067;-60
2023/08/19 14:00:19;;;;;;;5.40;4.90;;;;;;;31.76;41.50;99224.70;223508;182;150037;-61
2023/08/19 14:05:23;;;;;;;7.20;5.30;;;;;;;31.53;42.47;99225.57;223487;182;139479;-59
2023/08/19 14:10:26;;;;;;;7.60;5.40;;;;;;;31.32;43.10;99216.40;223454;182;140456;-60
2023/08/19 14:15:30;;;;;;;6.90;4.90;;;;;;;31.08;43.67;99213.34;223463;182;147677;-60
2023/08/19 14:20:33;;;;;;;5.20;4.70;;;;;;;30.86;42.95;99213.98;223298;181;141154;-63
2023/08/19 14:25:36;;;;;;;6.20;5.10;;;;;;;30.74;42.69;99213.60;223344;181;137573;-61
2023/08/19 14:30:41;;;;;;;5.80;4.90;;;;;;;30.63;42.40;99206.23;223376;181;147468;-60
2023/08/19 14:35:45;;;;;;;7.30;5.10;;;;;;;30.67;42.64;99193.73;223347;182;139283;-59
2023/08/19 14:40:48;;;;;;;6.60;4.40;;;;;;;30.82;42.93;99197.02;223377;182;136923;-61
2023/08/19 14:45:53;;;;;;;7.10;4.50;;;;;;;30.77;42.31;99205.48;223413;182;149207;-61
2023/08/19 14:50:56;;;;;;;8.70;5.90;;;;;;;30.63;42.57;99204.95;223408;182;140518;-60
2023/08/19 14:55:59;;;;;;;8.70;4.90;;;;;;;30.47;43.25;99210.52;223411;182;136864;-60
2023/08/19 15:01:03;;;;;;;8.60;5.60;;;;;;;30.31;43.92;99211.61;223454;182;147752;-60
2023/08/19 15:06:07;;;;;;;9.10;5.20;;;;;;;30.18;46.04;99220.61;223423;182;153344;-60
2023/08/19 15:11:18;;;;;;;6.50;5.40;;;;;;;30.03;47.87;99232.30;223392;181;137958;-60
2023/08/19 15:16:24;;;;;;;10.90;5.30;;;;;;;29.86;46.76;99233.95;223396;182;147730;-60
2023/08/19 15:21:27;;;;;;;6.60;5.80;;;;;;;29.66;46.52;99238.48;223472;182;139644;-59
2023/08/19 15:26:30;;;;;;;8.30;5.60;;;;;;;29.50;47.33;99241.89;223418;182;139833;-60
2023/08/19 15:31:36;;;;;;;5.60;5.10;;;;;;;29.41;47.87;99242.95;223356;182;147680;-61
2023/08/19 15:36:39;;;;;;;6.70;5.20;;;;;;;29.31;48.66;99236.51;223407;181;138587;-61
2023/08/19 15:41:42;;;;;;;5.60;4.70;;;;;;;29.22;49.00;99240.84;223439;182;138573;-54
2023/08/19 15:46:45;;;;;;;7.00;5.80;;;;;;;29.17;48.95;99241.87;223391;181;147470;-61
2023/08/19 15:51:49;;;;;;;7.70;5.00;;;;;;;29.09;49.28;99243.41;223468;182;139038;-59
2023/08/19 15:56:52;;;;;;;6.00;5.40;;;;;;;29.01;49.70;99241.90;223381;182;138448;-60
2023/08/19 16:01:56;;;;;;;6.80;5.50;;;;;;;28.99;49.90;99242.09;223436;182;148967;-60
2023/08/19 16:07:02;;;;;;;7.10;5.60;;;;;;;28.98;50.26;99241.91;223400;181;140338;-59
2023/08/19 16:12:05;;;;;;;8.90;6.00;;;;;;;28.96;50.52;99241.31;223421;182;137394;-58
2023/08/19 16:17:08;;;;;;;7.70;5.80;;;;;;;28.93;50.88;99239.41;223493;182;148930;-61
2023/08/19 16:22:12;;;;;;;8.40;6.60;;;;;;;28.89;51.47;99237.89;223419;182;138938;-61
2023/08/19 16:27:17;;;;;;;7.60;6.90;;;;;;;28.88;52.10;99235.07;223463;182;137487;-64
2023/08/19 16:32:20;;;;;;;12.90;6.90;;;;;;;28.88;52.24;99242.40;223379;182;148298;-60
2023/08/19 16:37:24;;;;;;;6.90;6.20;;;;;;;28.86;52.21;99242.65;223434;181;140081;-61
2023/08/19 16:42:32;;;;;;;9.70;5.70;;;;;;;28.84;52.50;99238.59;223407;182;137973;-60
2023/08/19 16:47:36;;;;;;;8.40;5.70;;;;;;;28.81;52.99;99236.52;223456;182;147257;-61
2023/08/19 16:52:39;;;;;;;;;;;;;;;28.72;53.93;99242.99;223513;181;139149;-61
2023/08/19 16:57:43;;;;;;;9.10;6.20;;;;;;;28.62;54.65;99247.77;223471;181;131387;-61
2023/08/19 17:02:46;;;;;;;8.40;7.10;;;;;;;28.53;55.56;99253.61;223450;183;147640;-63
2023/08/19 17:07:49;;;;;;;9.10;6.70;;;;;;;28.44;56.06;99257.84;223399;182;140919;-60
2023/08/19 17:12:53;;;;;;;9.50;6.50;;;;;;;28.33;56.20;99258.52;223425;181;137866;-60
2023/08/19 17:17:56;;;;;;;7.10;6.40;;;;;;;28.20;56.32;99261.57;223372;183;147322;-61
2023/08/19 17:23:00;;;;;;;8.00;6.80;;;;;;;28.12;56.44;99268.10;223401;182;138992;-60
2023/08/19 17:28:03;;;;;;;9.10;5.80;;;;;;;28.06;55.96;99273.17;223341;181;137617;-61
2023/08/19 17:33:07;;;;;;;9.20;6.40;;;;;;;28.03;55.64;99279.23;223395;182;152703;-62
2023/08/19 17:38:11;;;;;;;10.10;6.20;;;;;;;27.99;55.78;99281.39;223351;182;139539;-59
2023/08/19 17:43:17;;;;;;;7.10;6.00;;;;;;;27.95;56.04;99282.74;223468;182;137621;-62
2023/08/19 17:48:26;;;;;;;7.90;6.50;;;;;;;27.91;56.53;99282.14;223470;182;147711;-59
2023/08/19 17:53:30;;;;;;;10.10;6.20;;;;;;;27.86;56.59;99280.92;223429;181;138863;-58
2023/08/19 17:58:33;;;;;;;8.40;6.30;;;;;;;27.81;56.85;99286.88;223456;181;138164;-59
2023/08/19 18:03:36;;;;;;;9.30;6.20;;;;;;;27.75;56.99;99295.35;223409;182;147588;-62
2023/08/19 18:08:40;;;;;;;12.30;9.60;;;;;;;27.68;57.07;99297.31;223376;181;140542;-57
2023/08/19 18:13:43;;;;;;;12.90;8.70;;;;;;;27.64;56.31;99301.89;223470;182;137488;-61
2023/08/19 18:18:46;;;;;;;50.30;33.40;;;;;;;27.58;55.31;99306.41;223445;181;147577;-61
2023/08/19 18:23:49;;;;;;;45.50;28.50;;;;;;;27.52;55.59;99307.00;223408;181;138929;-62
2023/08/19 18:28:52;;;;;;;119.20;76.00;;;;;;;27.45;56.02;99313.79;223422;182;138331;-61
2023/08/19 18:33:56;;;;;;;41.30;28.90;;;;;;;27.38;56.88;99310.88;223424;182;149227;-61
2023/08/19 18:39:00;;;;;;;161.50;100.10;;;;;;;27.29;57.18;99305.52;223401;181;139356;-60
2023/08/19 18:44:03;;;;;;;38.80;27.00;;;;;;;27.23;57.43;99303.13;223447;182;138192;-59
2023/08/19 18:49:07;;;;;;;32.00;21.60;;;;;;;27.15;57.83;99305.30;223477;182;148024;-60
2023/08/19 18:54:10;;;;;;;19.60;15.00;;;;;;;27.08;58.67;99307.36;223462;181;139295;-58
2023/08/19 18:59:14;;;;;;;28.60;17.30;;;;;;;26.99;58.92;99308.31;223487;181;138486;-58
2023/08/19 19:04:17;;;;;;;13.60;9.80;;;;;;;26.93;58.79;99307.33;223373;182;147768;-60
2023/08/19 19:09:22;;;;;;;15.80;9.70;;;;;;;26.88;58.65;99309.13;223481;182;139592;-57
2023/08/19 19:14:25;;;;;;;26.00;18.80;;;;;;;26.85;59.33;99319.38;223470;181;138845;-58
2023/08/19 19:19:28;;;;;;;15.60;11.50;;;;;;;26.87;59.23;99324.63;223439;182;147730;-61
2023/08/19 19:24:31;;;;;;;19.10;14.30;;;;;;;26.86;58.75;99327.02;223433;181;140724;-60
2023/08/19 19:29:34;;;;;;;11.50;8.70;;;;;;;26.83;58.47;99327.91;223441;181;138875;-61
2023/08/19 19:34:37;;;;;;;10.60;7.40;;;;;;;26.67;58.76;99324.70;223378;182;147360;-61
2023/08/19 19:39:41;;;;;;;7.80;7.00;;;;;;;26.52;58.72;99318.63;223422;182;138761;-63
2023/08/19 19:44:47;;;;;;;11.70;8.70;;;;;;;26.44;58.22;99317.20;223500;182;136877;-60
2023/08/19 19:49:50;;;;;;;12.10;7.60;;;;;;;26.42;58.53;99320.52;223454;182;149679;-60
2023/08/19 19:54:53;;;;;;;9.90;7.00;;;;;;;26.37;58.20;99330.39;223394;182;139638;-61
2023/08/19 19:59:57;;;;;;;10.00;7.20;;;;;;;26.36;57.95;99326.98;223410;181;137418;-61
2023/08/19 20:05:01;;;;;;;7.90;6.40;;;;;;;26.33;58.04;99319.48;223558;182;147991;-62
2023/08/19 20:10:05;;;;;;;7.30;5.80;;;;;;;26.28;57.66;99319.28;223406;182;139896;-60
2023/08/19 20:15:34;;;;;;;10.80;6.30;;;;;;;26.17;57.85;99321.93;223505;181;138332;-61
2023/08/19 20:20:37;;;;;;;8.30;7.00;;;;;;;26.14;57.76;99319.83;223419;182;148483;-58
2023/08/19 20:25:41;;;;;;;8.20;6.60;;;;;;;26.08;58.34;99334.24;223472;181;140654;-61
2023/08/19 20:30:44;;;;;;;8.20;6.00;;;;;;;26.02;58.34;99342.60;223378;182;137501;-61
2023/08/19 20:35:51;;;;;;;10.60;6.40;;;;;;;25.86;58.63;99343.80;223439;181;147798;-60
2023/08/19 20:41:04;;;;;;;9.80;5.80;;;;;;;25.71;59.55;99344.99;223361;181;141030;-63
2023/08/19 20:46:23;;;;;;;10.70;6.20;;;;;;;25.58;59.93;99343.77;223475;182;137090;-61
2023/08/19 20:51:26;;;;;;;7.60;6.00;;;;;;;25.47;60.40;99347.15;223510;182;147509;-64
2023/08/19 20:56:30;;;;;;;9.80;6.00;;;;;;;25.40;60.90;99344.93;223392;181;138803;-59
2023/08/19 21:01:33;;;;;;;9.90;7.20;;;;;;;25.32;61.24;99343.40;223483;182;137142;-61
2023/08/19 21:06:37;;;;;;;8.80;7.00;;;;;;;25.18;61.76;99345.02;223501;182;147784;-60
2023/08/19 21:11:40;;;;;;;16.80;7.50;;;;;;;25.10;62.02;99346.85;223395;182;139807;-59
2023/08/19 21:16:44;;;;;;;11.80;6.30;;;;;;;25.09;62.26;99345.91;223429;181;137659;-63
2023/08/19 21:21:47;;;;;;;11.70;6.70;;;;;;;25.07;62.39;99349.55;223431;181;147691;-60
2023/08/19 21:26:50;;;;;;;9.40;6.60;;;;;;;25.10;62.41;99347.52;223437;181;139287;-61
2023/08/19 21:31:53;;;;;;;10.40;7.30;;;;;;;25.13;62.51;99343.27;223507;182;136969;-60
2023/08/19 21:36:56;;;;;;;8.80;7.10;;;;;;;25.19;62.46;99345.02;223358;183;147694;-62
2023/08/19 21:42:00;;;;;;;12.20;6.50;;;;;;;25.25;62.11;99347.81;223438;179;138705;-60
2023/08/19 21:47:03;;;;;;;12.00;7.00;;;;;;;25.24;62.35;99353.33;223440;182;136744;-63
2023/08/19 21:52:07;;;;;;;11.30;7.70;;;;;;;25.24;62.26;99349.59;223360;182;149116;-61
2023/08/19 21:57:10;;;;;;;9.40;7.70;;;;;;;25.20;62.23;99350.73;223554;182;138987;-61
2023/08/19 22:02:13;;;;;;;8.90;7.30;;;;;;;25.16;62.38;99353.22;223384;182;137081;-63
2023/08/19 22:07:17;;;;;;;9.70;7.00;;;;;;;25.01;62.50;99349.60;223425;182;147702;-61
2023/08/19 22:12:20;;;;;;;8.70;7.50;;;;;;;24.89;62.91;99352.41;223359;181;139007;-61
2023/08/19 22:17:24;;;;;;;9.80;7.60;;;;;;;24.79;63.43;99357.17;223410;181;137144;-57
2023/08/19 22:22:27;;;;;;;10.20;7.50;;;;;;;24.85;64.52;99357.07;223428;182;147689;-60
2023/08/19 22:27:30;;;;;;;11.20;7.00;;;;;;;24.96;64.85;99358.88;223364;182;138808;-60
2023/08/19 22:32:34;;;;;;;10.30;7.30;;;;;;;25.00;64.49;99362.18;223303;182;138052;-61
2023/08/19 22:37:37;;;;;;;9.90;7.30;;;;;;;25.07;65.13;99361.94;223416;182;147500;-60
2023/08/19 22:42:40;;;;;;;10.20;7.50;;;;;;;25.05;64.63;99358.55;223439;181;140301;-60
2023/08/19 22:47:43;;;;;;;14.70;7.30;;;;;;;25.09;64.92;99356.80;223429;182;137286;-61
2023/08/19 22:52:47;;;;;;;10.70;8.30;;;;;;;25.18;64.90;99358.65;223243;181;147269;-56
2023/08/19 22:57:50;;;;;;;9.40;7.50;;;;;;;25.23;64.80;99349.63;223407;181;140611;-59
2023/08/19 23:02:54;;;;;;;8.70;7.80;;;;;;;25.29;64.42;99348.42;223378;181;139570;-59
2023/08/19 23:07:57;;;;;;;9.00;8.10;;;;;;;25.31;64.49;99347.70;223396;181;147900;-60
2023/08/19 23:13:00;;;;;;;12.80;8.10;;;;;;;25.36;64.60;99352.36;223355;182;140591;-62
2023/08/19 23:18:04;;;;;;;10.10;7.60;;;;;;;25.32;64.37;99351.05;223489;181;137756;-62
2023/08/19 23:23:07;;;;;;;10.50;7.60;;;;;;;25.27;64.42;99353.99;223519;181;147768;-58
2023/08/19 23:28:11;;;;;;;10.60;8.30;;;;;;;25.26;64.45;99352.42;223347;182;140548;-61
2023/08/19 23:33:14;;;;;;;11.40;7.80;;;;;;;25.27;64.50;99350.35;223431;182;138085;-61
2023/08/19 23:38:17;;;;;;;9.70;8.70;;;;;;;25.20;64.50;99351.63;223578;183;148966;-60
2023/08/19 23:43:21;;;;;;;12.00;8.50;;;;;;;25.10;64.36;99349.60;223553;182;138592;-61
2023/08/19 23:48:25;;;;;;;10.30;8.90;;;;;;;24.84;64.60;99344.59;223485;182;138164;-62
2023/08/19 23:53:32;;;;;;;10.30;9.10;;;;;;;24.64;65.38;99347.31;223538;182;148251;-59
2023/08/19 23:58:35;;;;;;;11.50;9.00;;;;;;;24.47;66.13;99349.05;223502;182;139204;-63
